sensor_id;sensor_type;location;lat;lon;timestamp;P1;durP1;ratioP1;P2;durP2;ratioP2
61085;SDS011;46967;48.876;2.136;2023-09-18T00:01:04;4.10;;;1.20;;
61085;SDS011;46967;48.876;2.136;2023-09-18T00:03:30;5.40;;;1.30;;
61085;SDS011;46967;48.876;2.136;2023-09-18T00:05:56;2.65;;;1.10;;
61085;SDS011;46967;48.876;2.136;2023-09-18T00:08:21;2.33;;;1.45;;
61085;SDS011;46967;48.876;2.136;2023-09-18T00:10:53;3.38;;;1.30;;
61085;SDS011;46967;48.876;2.136;2023-09-18T00:13:19;3.92;;;1.67;;
61085;SDS011;46967;48.876;2.136;2023-09-18T00:15:45;2.88;;;1.52;;
61085;SDS011;46967;48.876;2.136;2023-09-18T00:18:14;2.42;;;1.65;;
61085;SDS011;46967;48.876;2.136;2023-09-18T00:20:40;10.55;;;1.45;;
61085;SDS011;46967;48.876;2.136;2023-09-18T00:23:06;3.58;;;1.50;;
61085;SDS011;46967;48.876;2.136;2023-09-18T00:25:32;5.05;;;1.88;;
61085;SDS011;46967;48.876;2.136;2023-09-18T00:27:58;2.55;;;1.55;;
61085;SDS011;46967;48.876;2.136;2023-09-18T00:30:24;5.78;;;2.25;;
61085;SDS011;46967;48.876;2.136;2023-09-18T00:32:49;5.05;;;1.77;;
61085;SDS011;46967;48.876;2.136;2023-09-18T00:35:15;4.53;;;2.10;;
61085;SDS011;46967;48.876;2.136;2023-09-18T00:37:40;7.20;;;2.58;;
61085;SDS011;46967;48.876;2.136;2023-09-18T00:40:06;4.68;;;2.25;;
61085;SDS011;46967;48.876;2.136;2023-09-18T00:42:32;6.70;;;2.10;;
61085;SDS011;46967;48.876;2.136;2023-09-18T00:44:57;5.97;;;2.30;;
61085;SDS011;46967;48.876;2.136;2023-09-18T00:47:23;4.65;;;2.40;;
61085;SDS011;46967;48.876;2.136;2023-09-18T00:49:49;6.78;;;2.15;;
61085;SDS011;46967;48.876;2.136;2023-09-18T00:52:17;3.33;;;1.83;;
61085;SDS011;46967;48.876;2.136;2023-09-18T00:54:43;5.22;;;1.75;;
61085;SDS011;46967;48.876;2.136;2023-09-18T00:57:09;7.80;;;1.95;;
61085;SDS011;46967;48.876;2.136;2023-09-18T00:59:38;4.53;;;1.10;;
61085;SDS011;46967;48.876;2.136;2023-09-18T01:02:04;4.30;;;1.80;;
61085;SDS011;46967;48.876;2.136;2023-09-18T01:04:30;2.90;;;1.52;;
61085;SDS011;46967;48.876;2.136;2023-09-18T01:06:57;6.43;;;1.70;;
61085;SDS011;46967;48.876;2.136;2023-09-18T01:09:24;6.45;;;1.40;;
61085;SDS011;46967;48.876;2.136;2023-09-18T01:14:57;6.95;;;1.60;;
61085;SDS011;46967;48.876;2.136;2023-09-18T01:17:29;4.13;;;1.33;;
61085;SDS011;46967;48.876;2.136;2023-09-18T01:19:56;4.50;;;1.42;;
61085;SDS011;46967;48.876;2.136;2023-09-18T01:22:21;5.97;;;1.42;;
61085;SDS011;46967;48.876;2.136;2023-09-18T01:24:47;4.63;;;1.75;;
61085;SDS011;46967;48.876;2.136;2023-09-18T01:27:14;4.38;;;1.48;;
61085;SDS011;46967;48.876;2.136;2023-09-18T01:29:43;6.03;;;1.50;;
61085;SDS011;46967;48.876;2.136;2023-09-18T01:32:09;4.70;;;1.23;;
61085;SDS011;46967;48.876;2.136;2023-09-18T01:34:36;5.05;;;1.98;;
61085;SDS011;46967;48.876;2.136;2023-09-18T01:37:12;2.00;;;1.10;;
61085;SDS011;46967;48.876;2.136;2023-09-18T01:39:39;2.78;;;1.30;;
61085;SDS011;46967;48.876;2.136;2023-09-18T01:42:05;2.75;;;1.13;;
61085;SDS011;46967;48.876;2.136;2023-09-18T01:44:32;3.38;;;1.33;;
61085;SDS011;46967;48.876;2.136;2023-09-18T01:46:58;3.53;;;1.20;;
61085;SDS011;46967;48.876;2.136;2023-09-18T01:49:30;5.72;;;1.40;;
61085;SDS011;46967;48.876;2.136;2023-09-18T01:52:03;5.85;;;1.40;;
61085;SDS011;46967;48.876;2.136;2023-09-18T01:54:30;3.03;;;1.05;;
61085;SDS011;46967;48.876;2.136;2023-09-18T01:56:56;3.83;;;1.15;;
61085;SDS011;46967;48.876;2.136;2023-09-18T01:59:22;6.07;;;1.23;;
61085;SDS011;46967;48.876;2.136;2023-09-18T02:01:48;5.10;;;1.23;;
61085;SDS011;46967;48.876;2.136;2023-09-18T02:04:15;3.72;;;1.27;;
61085;SDS011;46967;48.876;2.136;2023-09-18T02:06:40;3.00;;;1.30;;
61085;SDS011;46967;48.876;2.136;2023-09-18T02:09:06;5.28;;;1.52;;
61085;SDS011;46967;48.876;2.136;2023-09-18T02:11:37;3.13;;;1.40;;
61085;SDS011;46967;48.876;2.136;2023-09-18T02:14:05;4.68;;;1.25;;
61085;SDS011;46967;48.876;2.136;2023-09-18T02:16:32;4.00;;;1.20;;
61085;SDS011;46967;48.876;2.136;2023-09-18T02:18:58;3.33;;;1.42;;
61085;SDS011;46967;48.876;2.136;2023-09-18T02:21:24;6.00;;;1.55;;
61085;SDS011;46967;48.876;2.136;2023-09-18T02:23:52;2.58;;;1.23;;
61085;SDS011;46967;48.876;2.136;2023-09-18T02:26:21;4.20;;;1.52;;
61085;SDS011;46967;48.876;2.136;2023-09-18T02:28:48;5.63;;;1.58;;
61085;SDS011;46967;48.876;2.136;2023-09-18T02:31:13;3.78;;;1.60;;
61085;SDS011;46967;48.876;2.136;2023-09-18T02:33:40;3.85;;;1.50;;
61085;SDS011;46967;48.876;2.136;2023-09-18T02:36:06;3.58;;;1.38;;
61085;SDS011;46967;48.876;2.136;2023-09-18T02:38:32;4.38;;;1.42;;
61085;SDS011;46967;48.876;2.136;2023-09-18T02:40:58;3.22;;;1.23;;
61085;SDS011;46967;48.876;2.136;2023-09-18T02:43:23;5.32;;;1.95;;
61085;SDS011;46967;48.876;2.136;2023-09-18T02:45:49;6.38;;;1.60;;
61085;SDS011;46967;48.876;2.136;2023-09-18T02:48:15;2.75;;;1.33;;
61085;SDS011;46967;48.876;2.136;2023-09-18T02:50:40;5.15;;;1.33;;
61085;SDS011;46967;48.876;2.136;2023-09-18T02:53:07;3.63;;;1.40;;
61085;SDS011;46967;48.876;2.136;2023-09-18T02:55:36;2.17;;;1.30;;
61085;SDS011;46967;48.876;2.136;2023-09-18T02:58:02;5.93;;;1.50;;
61085;SDS011;46967;48.876;2.136;2023-09-18T03:00:27;2.42;;;1.40;;
61085;SDS011;46967;48.876;2.136;2023-09-18T03:02:52;2.15;;;1.30;;
61085;SDS011;46967;48.876;2.136;2023-09-18T03:05:18;4.53;;;1.40;;
61085;SDS011;46967;48.876;2.136;2023-09-18T03:07:43;3.83;;;1.50;;
61085;SDS011;46967;48.876;2.136;2023-09-18T03:10:09;3.08;;;1.33;;
61085;SDS011;46967;48.876;2.136;2023-09-18T03:12:38;4.23;;;2.43;;
61085;SDS011;46967;48.876;2.136;2023-09-18T03:15:04;4.75;;;1.40;;
61085;SDS011;46967;48.876;2.136;2023-09-18T03:17:31;2.97;;;1.33;;
61085;SDS011;46967;48.876;2.136;2023-09-18T03:19:57;4.28;;;1.45;;
61085;SDS011;46967;48.876;2.136;2023-09-18T03:22:22;3.88;;;1.40;;
61085;SDS011;46967;48.876;2.136;2023-09-18T03:24:47;5.38;;;1.65;;
61085;SDS011;46967;48.876;2.136;2023-09-18T03:27:13;2.33;;;1.23;;
61085;SDS011;46967;48.876;2.136;2023-09-18T03:29:38;4.43;;;1.65;;
61085;SDS011;46967;48.876;2.136;2023-09-18T03:32:03;3.05;;;1.35;;
61085;SDS011;46967;48.876;2.136;2023-09-18T03:34:29;3.63;;;1.55;;
61085;SDS011;46967;48.876;2.136;2023-09-18T03:36:54;4.50;;;1.30;;
61085;SDS011;46967;48.876;2.136;2023-09-18T03:39:20;5.68;;;1.42;;
61085;SDS011;46967;48.876;2.136;2023-09-18T03:41:46;6.70;;;1.30;;
61085;SDS011;46967;48.876;2.136;2023-09-18T03:44:11;5.55;;;1.50;;
61085;SDS011;46967;48.876;2.136;2023-09-18T03:46:37;3.95;;;1.48;;
61085;SDS011;46967;48.876;2.136;2023-09-18T03:49:02;4.85;;;1.67;;
61085;SDS011;46967;48.876;2.136;2023-09-18T03:51:28;1.70;;;1.08;;
61085;SDS011;46967;48.876;2.136;2023-09-18T03:53:54;3.17;;;1.48;;
61085;SDS011;46967;48.876;2.136;2023-09-18T03:56:20;3.88;;;1.27;;
61085;SDS011;46967;48.876;2.136;2023-09-18T03:58:46;4.40;;;1.73;;
61085;SDS011;46967;48.876;2.136;2023-09-18T04:01:14;2.95;;;1.75;;
61085;SDS011;46967;48.876;2.136;2023-09-18T04:03:40;4.53;;;1.40;;
61085;SDS011;46967;48.876;2.136;2023-09-18T04:06:05;2.28;;;1.45;;
61085;SDS011;46967;48.876;2.136;2023-09-18T04:08:31;2.58;;;1.30;;
61085;SDS011;46967;48.876;2.136;2023-09-18T04:10:57;3.72;;;1.75;;
61085;SDS011;46967;48.876;2.136;2023-09-18T04:13:23;3.58;;;1.60;;
61085;SDS011;46967;48.876;2.136;2023-09-18T04:15:48;3.40;;;1.35;;
61085;SDS011;46967;48.876;2.136;2023-09-18T04:18:13;4.50;;;1.73;;
61085;SDS011;46967;48.876;2.136;2023-09-18T04:20:39;4.70;;;1.50;;
61085;SDS011;46967;48.876;2.136;2023-09-18T04:23:17;3.35;;;1.38;;
61085;SDS011;46967;48.876;2.136;2023-09-18T04:25:50;3.90;;;1.38;;
61085;SDS011;46967;48.876;2.136;2023-09-18T04:28:17;15.77;;;1.83;;
61085;SDS011;46967;48.876;2.136;2023-09-18T04:30:46;3.90;;;1.70;;
61085;SDS011;46967;48.876;2.136;2023-09-18T04:33:15;6.35;;;1.60;;
61085;SDS011;46967;48.876;2.136;2023-09-18T04:38:07;3.93;;;1.70;;
61085;SDS011;46967;48.876;2.136;2023-09-18T04:40:33;4.07;;;1.40;;
61085;SDS011;46967;48.876;2.136;2023-09-18T04:43:00;2.90;;;1.40;;
61085;SDS011;46967;48.876;2.136;2023-09-18T04:45:25;4.13;;;1.60;;
61085;SDS011;46967;48.876;2.136;2023-09-18T04:47:51;3.38;;;1.65;;
61085;SDS011;46967;48.876;2.136;2023-09-18T04:50:17;5.65;;;1.52;;
61085;SDS011;46967;48.876;2.136;2023-09-18T04:52:42;4.78;;;1.67;;
61085;SDS011;46967;48.876;2.136;2023-09-18T04:55:08;6.38;;;1.58;;
61085;SDS011;46967;48.876;2.136;2023-09-18T04:57:34;5.85;;;1.73;;
61085;SDS011;46967;48.876;2.136;2023-09-18T05:00:00;3.97;;;1.70;;
61085;SDS011;46967;48.876;2.136;2023-09-18T05:02:26;3.55;;;1.63;;
61085;SDS011;46967;48.876;2.136;2023-09-18T05:04:51;9.35;;;1.70;;
61085;SDS011;46967;48.876;2.136;2023-09-18T05:07:17;4.15;;;1.52;;
61085;SDS011;46967;48.876;2.136;2023-09-18T05:09:42;6.53;;;1.80;;
61085;SDS011;46967;48.876;2.136;2023-09-18T05:12:08;4.13;;;1.50;;
61085;SDS011;46967;48.876;2.136;2023-09-18T05:14:41;7.28;;;1.70;;
61085;SDS011;46967;48.876;2.136;2023-09-18T05:17:15;5.20;;;1.75;;
61085;SDS011;46967;48.876;2.136;2023-09-18T05:19:41;3.28;;;1.83;;
61085;SDS011;46967;48.876;2.136;2023-09-18T05:22:08;4.82;;;1.80;;
61085;SDS011;46967;48.876;2.136;2023-09-18T05:24:35;7.38;;;1.75;;
61085;SDS011;46967;48.876;2.136;2023-09-18T05:27:01;5.75;;;1.83;;
61085;SDS011;46967;48.876;2.136;2023-09-18T05:29:27;7.30;;;1.88;;
61085;SDS011;46967;48.876;2.136;2023-09-18T05:31:52;3.17;;;1.60;;
61085;SDS011;46967;48.876;2.136;2023-09-18T05:34:18;5.43;;;2.15;;
61085;SDS011;46967;48.876;2.136;2023-09-18T05:36:43;5.22;;;1.95;;
61085;SDS011;46967;48.876;2.136;2023-09-18T05:39:08;4.13;;;1.83;;
61085;SDS011;46967;48.876;2.136;2023-09-18T05:41:37;6.40;;;1.90;;
61085;SDS011;46967;48.876;2.136;2023-09-18T05:44:03;5.47;;;2.03;;
61085;SDS011;46967;48.876;2.136;2023-09-18T05:46:30;5.00;;;2.10;;
61085;SDS011;46967;48.876;2.136;2023-09-18T05:48:55;6.18;;;2.10;;
61085;SDS011;46967;48.876;2.136;2023-09-18T05:51:22;6.45;;;1.85;;
61085;SDS011;46967;48.876;2.136;2023-09-18T05:53:47;9.07;;;2.40;;
61085;SDS011;46967;48.876;2.136;2023-09-18T05:56:13;7.35;;;2.40;;
61085;SDS011;46967;48.876;2.136;2023-09-18T05:58:39;10.30;;;2.15;;
61085;SDS011;46967;48.876;2.136;2023-09-18T06:01:05;7.70;;;2.30;;
61085;SDS011;46967;48.876;2.136;2023-09-18T06:03:32;8.73;;;2.45;;
61085;SDS011;46967;48.876;2.136;2023-09-18T06:06:00;4.03;;;2.15;;
61085;SDS011;46967;48.876;2.136;2023-09-18T06:08:29;7.97;;;2.28;;
61085;SDS011;46967;48.876;2.136;2023-09-18T06:10:58;6.80;;;2.33;;
61085;SDS011;46967;48.876;2.136;2023-09-18T06:13:24;10.32;;;2.63;;
61085;SDS011;46967;48.876;2.136;2023-09-18T06:15:50;6.22;;;2.30;;
61085;SDS011;46967;48.876;2.136;2023-09-18T06:18:17;8.18;;;2.60;;
61085;SDS011;46967;48.876;2.136;2023-09-18T06:20:45;3.78;;;2.17;;
61085;SDS011;46967;48.876;2.136;2023-09-18T06:23:14;7.27;;;2.90;;
61085;SDS011;46967;48.876;2.136;2023-09-18T06:25:39;6.10;;;2.33;;
61085;SDS011;46967;48.876;2.136;2023-09-18T06:28:05;9.40;;;2.50;;
61085;SDS011;46967;48.876;2.136;2023-09-18T06:30:31;8.45;;;2.30;;
61085;SDS011;46967;48.876;2.136;2023-09-18T06:32:58;7.93;;;2.58;;
61085;SDS011;46967;48.876;2.136;2023-09-18T06:35:24;10.75;;;2.83;;
61085;SDS011;46967;48.876;2.136;2023-09-18T06:37:49;7.60;;;2.97;;
61085;SDS011;46967;48.876;2.136;2023-09-18T06:40:15;8.23;;;2.35;;
61085;SDS011;46967;48.876;2.136;2023-09-18T06:42:40;7.93;;;2.70;;
61085;SDS011;46967;48.876;2.136;2023-09-18T06:45:06;5.90;;;2.88;;
61085;SDS011;46967;48.876;2.136;2023-09-18T06:47:32;5.90;;;2.58;;
61085;SDS011;46967;48.876;2.136;2023-09-18T06:49:58;8.55;;;2.95;;
61085;SDS011;46967;48.876;2.136;2023-09-18T06:52:25;6.32;;;2.58;;
61085;SDS011;46967;48.876;2.136;2023-09-18T06:54:51;9.20;;;2.70;;
61085;SDS011;46967;48.876;2.136;2023-09-18T06:57:17;4.78;;;2.40;;
61085;SDS011;46967;48.876;2.136;2023-09-18T06:59:42;9.93;;;2.72;;
61085;SDS011;46967;48.876;2.136;2023-09-18T07:02:08;11.00;;;3.10;;
61085;SDS011;46967;48.876;2.136;2023-09-18T07:04:33;7.95;;;2.60;;
61085;SDS011;46967;48.876;2.136;2023-09-18T07:06:58;9.10;;;2.88;;
61085;SDS011;46967;48.876;2.136;2023-09-18T07:09:24;9.98;;;3.22;;
61085;SDS011;46967;48.876;2.136;2023-09-18T07:11:50;6.68;;;2.65;;
61085;SDS011;46967;48.876;2.136;2023-09-18T07:14:16;8.65;;;3.03;;
61085;SDS011;46967;48.876;2.136;2023-09-18T07:16:41;8.93;;;2.47;;
61085;SDS011;46967;48.876;2.136;2023-09-18T07:19:07;6.35;;;2.50;;
61085;SDS011;46967;48.876;2.136;2023-09-18T07:21:37;6.45;;;2.80;;
61085;SDS011;46967;48.876;2.136;2023-09-18T07:24:05;7.28;;;2.97;;
61085;SDS011;46967;48.876;2.136;2023-09-18T07:26:30;10.00;;;2.40;;
61085;SDS011;46967;48.876;2.136;2023-09-18T07:28:56;5.90;;;2.45;;
61085;SDS011;46967;48.876;2.136;2023-09-18T07:31:21;8.65;;;2.60;;
61085;SDS011;46967;48.876;2.136;2023-09-18T07:33:47;8.07;;;2.75;;
61085;SDS011;46967;48.876;2.136;2023-09-18T07:36:13;8.82;;;3.53;;
61085;SDS011;46967;48.876;2.136;2023-09-18T07:38:40;8.18;;;2.58;;
61085;SDS011;46967;48.876;2.136;2023-09-18T07:41:08;6.38;;;2.67;;
61085;SDS011;46967;48.876;2.136;2023-09-18T07:43:33;7.40;;;3.22;;
61085;SDS011;46967;48.876;2.136;2023-09-18T07:45:59;9.43;;;2.45;;
61085;SDS011;46967;48.876;2.136;2023-09-18T07:48:26;6.53;;;2.38;;
61085;SDS011;46967;48.876;2.136;2023-09-18T07:50:52;7.15;;;2.60;;
61085;SDS011;46967;48.876;2.136;2023-09-18T07:53:19;9.82;;;2.50;;
61085;SDS011;46967;48.876;2.136;2023-09-18T07:55:44;10.43;;;2.90;;
61085;SDS011;46967;48.876;2.136;2023-09-18T07:58:09;8.63;;;2.60;;
61085;SDS011;46967;48.876;2.136;2023-09-18T08:00:36;7.43;;;2.60;;
61085;SDS011;46967;48.876;2.136;2023-09-18T08:03:01;6.55;;;2.67;;
61085;SDS011;46967;48.876;2.136;2023-09-18T08:05:27;7.93;;;2.58;;
61085;SDS011;46967;48.876;2.136;2023-09-18T08:07:53;6.10;;;2.30;;
61085;SDS011;46967;48.876;2.136;2023-09-18T08:10:22;8.85;;;2.70;;
61085;SDS011;46967;48.876;2.136;2023-09-18T08:12:48;9.65;;;2.40;;
61085;SDS011;46967;48.876;2.136;2023-09-18T08:15:16;6.90;;;2.00;;
61085;SDS011;46967;48.876;2.136;2023-09-18T08:17:42;4.55;;;2.33;;
61085;SDS011;46967;48.876;2.136;2023-09-18T08:20:07;11.05;;;2.30;;
61085;SDS011;46967;48.876;2.136;2023-09-18T08:22:38;8.18;;;2.50;;
61085;SDS011;46967;48.876;2.136;2023-09-18T08:25:03;9.55;;;2.50;;
61085;SDS011;46967;48.876;2.136;2023-09-18T08:27:30;6.57;;;2.30;;
61085;SDS011;46967;48.876;2.136;2023-09-18T08:29:55;5.07;;;1.90;;
61085;SDS011;46967;48.876;2.136;2023-09-18T08:32:21;4.45;;;2.00;;
61085;SDS011;46967;48.876;2.136;2023-09-18T08:34:46;4.35;;;1.95;;
61085;SDS011;46967;48.876;2.136;2023-09-18T08:37:11;6.45;;;2.35;;
61085;SDS011;46967;48.876;2.136;2023-09-18T08:39:38;5.35;;;2.08;;
61085;SDS011;46967;48.876;2.136;2023-09-18T08:42:03;5.65;;;2.20;;
61085;SDS011;46967;48.876;2.136;2023-09-18T08:44:32;4.03;;;1.75;;
61085;SDS011;46967;48.876;2.136;2023-09-18T08:46:57;5.38;;;2.20;;
61085;SDS011;46967;48.876;2.136;2023-09-18T08:49:23;8.52;;;2.10;;
61085;SDS011;46967;48.876;2.136;2023-09-18T08:51:53;7.47;;;2.25;;
61085;SDS011;46967;48.876;2.136;2023-09-18T08:54:20;7.85;;;1.70;;
61085;SDS011;46967;48.876;2.136;2023-09-18T08:56:48;6.57;;;1.80;;
61085;SDS011;46967;48.876;2.136;2023-09-18T08:59:14;6.57;;;1.92;;
61085;SDS011;46967;48.876;2.136;2023-09-18T09:01:40;5.55;;;1.67;;
61085;SDS011;46967;48.876;2.136;2023-09-18T09:04:05;3.30;;;1.60;;
61085;SDS011;46967;48.876;2.136;2023-09-18T09:06:30;3.38;;;1.50;;
61085;SDS011;46967;48.876;2.136;2023-09-18T09:08:56;10.18;;;2.05;;
61085;SDS011;46967;48.876;2.136;2023-09-18T09:11:22;3.30;;;1.70;;
61085;SDS011;46967;48.876;2.136;2023-09-18T09:13:47;2.40;;;1.48;;
61085;SDS011;46967;48.876;2.136;2023-09-18T09:16:33;5.47;;;1.60;;
61085;SDS011;46967;48.876;2.136;2023-09-18T09:18:59;3.90;;;1.60;;
61085;SDS011;46967;48.876;2.136;2023-09-18T09:21:25;4.10;;;1.67;;
61085;SDS011;46967;48.876;2.136;2023-09-18T09:24:03;4.20;;;1.70;;
61085;SDS011;46967;48.876;2.136;2023-09-18T09:26:28;4.45;;;1.67;;
61085;SDS011;46967;48.876;2.136;2023-09-18T09:28:54;4.55;;;1.60;;
61085;SDS011;46967;48.876;2.136;2023-09-18T09:33:50;5.07;;;1.73;;
61085;SDS011;46967;48.876;2.136;2023-09-18T09:36:18;5.37;;;1.80;;
61085;SDS011;46967;48.876;2.136;2023-09-18T09:38:46;4.63;;;1.98;;
61085;SDS011;46967;48.876;2.136;2023-09-18T09:41:15;4.72;;;1.75;;
61085;SDS011;46967;48.876;2.136;2023-09-18T09:56:21;4.30;;;1.50;;
61085;SDS011;46967;48.876;2.136;2023-09-18T09:59:02;4.82;;;1.58;;
61085;SDS011;46967;48.876;2.136;2023-09-18T10:01:35;4.60;;;1.40;;
61085;SDS011;46967;48.876;2.136;2023-09-18T10:04:04;5.18;;;1.50;;
61085;SDS011;46967;48.876;2.136;2023-09-18T10:06:32;5.78;;;1.60;;
61085;SDS011;46967;48.876;2.136;2023-09-18T10:09:03;3.83;;;1.42;;
61085;SDS011;46967;48.876;2.136;2023-09-18T10:11:34;4.38;;;1.60;;
61085;SDS011;46967;48.876;2.136;2023-09-18T10:14:04;4.05;;;1.20;;
61085;SDS011;46967;48.876;2.136;2023-09-18T10:16:36;3.40;;;1.23;;
61085;SDS011;46967;48.876;2.136;2023-09-18T10:19:09;3.90;;;1.33;;
61085;SDS011;46967;48.876;2.136;2023-09-18T10:21:47;6.45;;;1.30;;
61085;SDS011;46967;48.876;2.136;2023-09-18T10:24:23;2.10;;;1.40;;
61085;SDS011;46967;48.876;2.136;2023-09-18T10:27:02;2.75;;;1.33;;
61085;SDS011;46967;48.876;2.136;2023-09-18T10:29:31;3.63;;;1.20;;
61085;SDS011;46967;48.876;2.136;2023-09-18T10:31:58;2.53;;;1.23;;
61085;SDS011;46967;48.876;2.136;2023-09-18T10:34:24;2.38;;;1.48;;
61085;SDS011;46967;48.876;2.136;2023-09-18T10:36:51;2.10;;;1.17;;
61085;SDS011;46967;48.876;2.136;2023-09-18T10:39:17;4.82;;;1.63;;
61085;SDS011;46967;48.876;2.136;2023-09-18T10:41:51;2.20;;;1.20;;
61085;SDS011;46967;48.876;2.136;2023-09-18T10:44:17;4.35;;;1.27;;
61085;SDS011;46967;48.876;2.136;2023-09-18T10:46:48;3.05;;;1.20;;
61085;SDS011;46967;48.876;2.136;2023-09-18T10:49:18;3.53;;;1.45;;
61085;SDS011;46967;48.876;2.136;2023-09-18T10:54:11;4.22;;;1.50;;
61085;SDS011;46967;48.876;2.136;2023-09-18T10:56:40;3.42;;;1.60;;
61085;SDS011;46967;48.876;2.136;2023-09-18T10:59:07;4.90;;;1.15;;
61085;SDS011;46967;48.876;2.136;2023-09-18T11:01:32;1.67;;;1.20;;
61085;SDS011;46967;48.876;2.136;2023-09-18T11:04:01;3.10;;;1.30;;
61085;SDS011;46967;48.876;2.136;2023-09-18T11:06:28;13.00;;;1.50;;
61085;SDS011;46967;48.876;2.136;2023-09-18T11:09:01;3.05;;;1.10;;
61085;SDS011;46967;48.876;2.136;2023-09-18T11:11:29;3.25;;;1.20;;
61085;SDS011;46967;48.876;2.136;2023-09-18T11:13:57;3.35;;;1.60;;
61085;SDS011;46967;48.876;2.136;2023-09-18T11:21:24;2.25;;;1.00;;
61085;SDS011;46967;48.876;2.136;2023-09-18T11:23:59;3.38;;;1.05;;
61085;SDS011;46967;48.876;2.136;2023-09-18T11:26:29;3.35;;;1.10;;
61085;SDS011;46967;48.876;2.136;2023-09-18T11:28:59;3.45;;;1.20;;
61085;SDS011;46967;48.876;2.136;2023-09-18T11:31:42;6.25;;;1.23;;
61085;SDS011;46967;48.876;2.136;2023-09-18T11:36:37;3.50;;;1.33;;
61085;SDS011;46967;48.876;2.136;2023-09-18T11:39:03;3.03;;;1.25;;
61085;SDS011;46967;48.876;2.136;2023-09-18T11:41:30;3.05;;;1.15;;
61085;SDS011;46967;48.876;2.136;2023-09-18T11:46:38;2.42;;;1.40;;
61085;SDS011;46967;48.876;2.136;2023-09-18T11:49:07;3.95;;;0.95;;
61085;SDS011;46967;48.876;2.136;2023-09-18T11:51:37;2.67;;;1.10;;
61085;SDS011;46967;48.876;2.136;2023-09-18T11:54:03;2.92;;;1.20;;
61085;SDS011;46967;48.876;2.136;2023-09-18T11:56:30;2.08;;;1.05;;
61085;SDS011;46967;48.876;2.136;2023-09-18T11:58:57;1.00;;;0.90;;
61085;SDS011;46967;48.876;2.136;2023-09-18T12:01:24;4.15;;;1.30;;
61085;SDS011;46967;48.876;2.136;2023-09-18T12:04:22;2.78;;;1.20;;
61085;SDS011;46967;48.876;2.136;2023-09-18T12:06:41;3.05;;;1.30;;
61085;SDS011;46967;48.876;2.136;2023-09-18T12:09:07;4.82;;;1.27;;
61085;SDS011;46967;48.876;2.136;2023-09-18T12:11:34;2.85;;;1.15;;
61085;SDS011;46967;48.876;2.136;2023-09-18T12:14:00;3.03;;;1.10;;
61085;SDS011;46967;48.876;2.136;2023-09-18T12:16:27;2.05;;;1.00;;
61085;SDS011;46967;48.876;2.136;2023-09-18T12:18:53;3.55;;;1.50;;
61085;SDS011;46967;48.876;2.136;2023-09-18T12:21:18;1.35;;;0.90;;
61085;SDS011;46967;48.876;2.136;2023-09-18T12:23:44;2.45;;;1.02;;
61085;SDS011;46967;48.876;2.136;2023-09-18T12:26:15;4.57;;;1.60;;
61085;SDS011;46967;48.876;2.136;2023-09-18T12:28:43;1.98;;;1.10;;
61085;SDS011;46967;48.876;2.136;2023-09-18T12:31:12;1.67;;;1.10;;
61085;SDS011;46967;48.876;2.136;2023-09-18T12:33:39;2.90;;;0.95;;
61085;SDS011;46967;48.876;2.136;2023-09-18T12:36:05;3.33;;;1.02;;
61085;SDS011;46967;48.876;2.136;2023-09-18T12:38:33;2.35;;;1.17;;
61085;SDS011;46967;48.876;2.136;2023-09-18T12:40:58;3.38;;;1.33;;
61085;SDS011;46967;48.876;2.136;2023-09-18T12:43:35;1.63;;;1.08;;
61085;SDS011;46967;48.876;2.136;2023-09-18T12:46:05;1.63;;;1.00;;
61085;SDS011;46967;48.876;2.136;2023-09-18T12:48:32;4.15;;;1.27;;
61085;SDS011;46967;48.876;2.136;2023-09-18T12:51:04;3.05;;;1.30;;
61085;SDS011;46967;48.876;2.136;2023-09-18T12:53:30;1.95;;;1.35;;
61085;SDS011;46967;48.876;2.136;2023-09-18T12:56:04;2.53;;;1.02;;
61085;SDS011;46967;48.876;2.136;2023-09-18T12:58:30;2.25;;;1.27;;
61085;SDS011;46967;48.876;2.136;2023-09-18T13:00:56;3.35;;;1.35;;
61085;SDS011;46967;48.876;2.136;2023-09-18T13:03:21;2.65;;;1.35;;
61085;SDS011;46967;48.876;2.136;2023-09-18T13:05:47;2.20;;;1.40;;
61085;SDS011;46967;48.876;2.136;2023-09-18T13:08:14;4.43;;;1.30;;
61085;SDS011;46967;48.876;2.136;2023-09-18T13:10:43;2.08;;;1.40;;
61085;SDS011;46967;48.876;2.136;2023-09-18T13:13:21;2.45;;;1.20;;
61085;SDS011;46967;48.876;2.136;2023-09-18T13:15:48;1.98;;;1.23;;
61085;SDS011;46967;48.876;2.136;2023-09-18T13:18:14;3.78;;;1.30;;
61085;SDS011;46967;48.876;2.136;2023-09-18T13:20:40;3.30;;;1.35;;
61085;SDS011;46967;48.876;2.136;2023-09-18T13:23:06;3.25;;;1.20;;
61085;SDS011;46967;48.876;2.136;2023-09-18T13:25:39;2.08;;;1.00;;
61085;SDS011;46967;48.876;2.136;2023-09-18T13:28:08;1.55;;;1.10;;
61085;SDS011;46967;48.876;2.136;2023-09-18T13:30:35;3.40;;;0.90;;
61085;SDS011;46967;48.876;2.136;2023-09-18T13:33:13;1.55;;;0.80;;
61085;SDS011;46967;48.876;2.136;2023-09-18T13:35:45;3.22;;;0.90;;
61085;SDS011;46967;48.876;2.136;2023-09-18T13:38:11;2.55;;;0.82;;
61085;SDS011;46967;48.876;2.136;2023-09-18T13:40:37;4.03;;;1.00;;
61085;SDS011;46967;48.876;2.136;2023-09-18T13:43:04;3.50;;;0.93;;
61085;SDS011;46967;48.876;2.136;2023-09-18T13:45:30;1.05;;;0.73;;
61085;SDS011;46967;48.876;2.136;2023-09-18T13:47:56;2.10;;;0.93;;
61085;SDS011;46967;48.876;2.136;2023-09-18T13:50:21;2.15;;;0.75;;
61085;SDS011;46967;48.876;2.136;2023-09-18T13:52:47;0.80;;;0.80;;
61085;SDS011;46967;48.876;2.136;2023-09-18T13:55:12;2.28;;;0.98;;
61085;SDS011;46967;48.876;2.136;2023-09-18T13:57:37;1.00;;;0.80;;
61085;SDS011;46967;48.876;2.136;2023-09-18T14:00:05;2.20;;;0.90;;
61085;SDS011;46967;48.876;2.136;2023-09-18T14:02:32;2.40;;;0.80;;
61085;SDS011;46967;48.876;2.136;2023-09-18T14:04:58;1.00;;;0.80;;
61085;SDS011;46967;48.876;2.136;2023-09-18T14:07:23;2.42;;;0.80;;
61085;SDS011;46967;48.876;2.136;2023-09-18T14:09:49;2.45;;;0.85;;
61085;SDS011;46967;48.876;2.136;2023-09-18T14:12:14;2.47;;;0.70;;
61085;SDS011;46967;48.876;2.136;2023-09-18T14:14:43;2.08;;;0.95;;
61085;SDS011;46967;48.876;2.136;2023-09-18T14:17:10;2.63;;;0.90;;
61085;SDS011;46967;48.876;2.136;2023-09-18T14:19:36;1.05;;;0.93;;
61085;SDS011;46967;48.876;2.136;2023-09-18T14:22:03;1.77;;;0.98;;
61085;SDS011;46967;48.876;2.136;2023-09-18T14:24:30;5.20;;;0.90;;
61085;SDS011;46967;48.876;2.136;2023-09-18T14:26:59;1.00;;;0.80;;
61085;SDS011;46967;48.876;2.136;2023-09-18T14:29:25;2.03;;;0.95;;
61085;SDS011;46967;48.876;2.136;2023-09-18T14:31:51;2.65;;;1.10;;
61085;SDS011;46967;48.876;2.136;2023-09-18T14:34:16;2.03;;;1.42;;
61085;SDS011;46967;48.876;2.136;2023-09-18T14:36:42;2.95;;;1.00;;
61085;SDS011;46967;48.876;2.136;2023-09-18T14:39:07;1.38;;;0.70;;
61085;SDS011;46967;48.876;2.136;2023-09-18T14:41:33;4.10;;;1.13;;
61085;SDS011;46967;48.876;2.136;2023-09-18T14:44:00;4.30;;;0.90;;
61085;SDS011;46967;48.876;2.136;2023-09-18T14:46:25;1.50;;;0.98;;
61085;SDS011;46967;48.876;2.136;2023-09-18T14:48:51;2.28;;;1.10;;
61085;SDS011;46967;48.876;2.136;2023-09-18T14:51:16;1.20;;;0.80;;
61085;SDS011;46967;48.876;2.136;2023-09-18T14:53:42;2.53;;;0.80;;
61085;SDS011;46967;48.876;2.136;2023-09-18T14:56:07;3.40;;;1.20;;
61085;SDS011;46967;48.876;2.136;2023-09-18T14:58:32;4.20;;;1.08;;
61085;SDS011;46967;48.876;2.136;2023-09-18T15:00:58;2.97;;;1.00;;
61085;SDS011;46967;48.876;2.136;2023-09-18T15:03:24;2.50;;;1.20;;
61085;SDS011;46967;48.876;2.136;2023-09-18T15:05:50;4.80;;;1.52;;
61085;SDS011;46967;48.876;2.136;2023-09-18T15:08:17;4.57;;;1.30;;
61085;SDS011;46967;48.876;2.136;2023-09-18T15:10:44;5.03;;;1.15;;
61085;SDS011;46967;48.876;2.136;2023-09-18T15:13:12;1.77;;;1.17;;
61085;SDS011;46967;48.876;2.136;2023-09-18T15:15:41;2.90;;;0.93;;
61085;SDS011;46967;48.876;2.136;2023-09-18T15:18:06;5.22;;;1.20;;
61085;SDS011;46967;48.876;2.136;2023-09-18T15:20:33;2.38;;;1.20;;